Time;durP1;ratioP1;P1;durP2;ratioP2;P2;SDS_P1;SDS_P2;PMS_P1;PMS_P2;Temp;Humidity;BMP_temperature;BMP_pressure;BME280_temperature;BME280_humidity;BME280_pressure;Samples;Min_cycle;Max_cycle;Signal;HPM_P1;HPM_P2
2022/11/11 00:01:38;;;;;;;0.90;0.50;;;21.90;62.30;;;;;;6199956;28;20110;-37
2022/11/11 00:04:59;;;;;;;0.25;0.25;;;21.70;62.50;;;;;;6206153;28;20163;-37
2022/11/11 00:08:19;;;;;;;0.63;0.40;;;21.80;62.00;;;;;;6203220;28;21379;-37
2022/11/11 00:11:39;;;;;;;0.60;0.47;;;21.40;62.10;;;;;;6201728;28;20148;-38
2022/11/11 00:14:59;;;;;;;0.95;0.40;;;22.00;62.30;;;;;;6203515;28;21173;-37
2022/11/11 00:25:19;;;;;;;0.60;0.50;;;21.50;61.70;;;;;;6191129;28;20068;-37
2022/11/11 00:28:39;;;;;;;0.50;0.40;;;21.60;62.00;;;;;;6279672;23;20888;-37
2022/11/11 00:38:59;;;;;;;0.40;0.30;;;21.80;61.80;;;;;;6253131;28;20083;-38
2022/11/11 00:42:19;;;;;;;0.57;0.40;;;21.90;61.90;;;;;;6246798;28;20060;-37
2022/11/11 00:45:39;;;;;;;0.55;0.50;;;22.10;61.80;;;;;;6249872;28;20155;-37
2022/11/11 00:52:29;;;;;;;0.40;0.40;;;21.20;60.80;;;;;;6247234;28;20063;-38
2022/11/11 00:55:49;;;;;;;0.75;0.38;;;21.60;61.50;;;;;;6247537;28;20052;-37
2022/11/11 00:59:09;;;;;;;0.52;0.35;;;21.20;60.80;;;;;;6250794;28;20048;-37
2022/11/11 01:02:29;;;;;;;0.57;0.40;;;21.40;61.20;;;;;;6257609;28;20044;-37
2022/11/11 01:05:50;;;;;;;0.68;0.40;;;21.20;60.50;;;;;;6260605;28;20909;-37
2022/11/11 01:09:09;;;;;;;0.50;0.40;;;21.60;61.10;;;;;;6264016;28;20052;-37
2022/11/11 01:12:29;;;;;;;1.25;0.70;;;21.40;60.90;;;;;;6260759;28;20055;-38
2022/11/11 01:15:51;;;;;;;0.43;0.40;;;21.80;60.80;;;;;;6257418;28;20263;-37
2022/11/11 01:19:09;;;;;;;0.75;0.57;;;21.40;60.60;;;;;;6245772;28;20084;-37
2022/11/11 01:22:29;;;;;;;0.77;0.50;;;21.50;60.70;;;;;;6277680;22;21028;-39
2022/11/11 01:25:49;;;;;;;0.70;0.40;;;21.60;60.50;;;;;;6253272;28;20132;-37
2022/11/11 01:29:09;;;;;;;0.70;0.50;;;21.60;60.40;;;;;;6251243;22;20166;-38
2022/11/11 01:32:29;;;;;;;0.75;0.40;;;21.30;59.90;;;;;;6232216;28;20055;-38
2022/11/11 01:35:49;;;;;;;0.47;0.30;;;21.30;60.00;;;;;;6236921;28;20045;-38
2022/11/11 01:39:09;;;;;;;0.35;0.30;;;21.30;59.80;;;;;;6231505;28;20048;-38
2022/11/11 01:42:29;;;;;;;1.00;0.55;;;21.00;59.80;;;;;;6230980;28;20151;-38
2022/11/11 01:45:54;;;;;;;0.50;0.38;;;21.40;59.90;;;;;;6232619;28;20155;-38
2022/11/11 01:49:21;;;;;;;0.75;0.40;;;21.30;59.40;;;;;;6220493;28;20055;-38
2022/11/11 01:52:46;;;;;;;0.47;0.30;;;21.30;59.30;;;;;;6218936;28;20048;-38
2022/11/11 01:56:01;;;;;;;0.80;0.50;;;21.10;59.20;;;;;;6227500;28;20044;-38
2022/11/11 01:59:19;;;;;;;0.32;0.32;;;21.30;59.10;;;;;;6231176;28;20118;-38
2022/11/11 02:02:44;;;;;;;0.40;0.40;;;21.40;59.00;;;;;;6234254;28;21101;-38
2022/11/11 02:05:59;;;;;;;0.50;0.47;;;21.10;58.60;;;;;;6234803;28;20044;-38
2022/11/11 02:09:20;;;;;;;0.30;0.30;;;21.50;58.90;;;;;;6232493;28;20158;-38
2022/11/11 02:16:09;;;;;;;0.40;0.40;;;21.30;58.60;;;;;;6237351;28;20067;-38
2022/11/11 02:19:35;;;;;;;0.47;0.40;;;21.40;58.70;;;;;;6235061;28;20048;-38
2022/11/11 02:22:55;;;;;;;0.40;0.40;;;21.10;58.30;;;;;;6237657;28;20139;-38
2022/11/11 02:26:12;;;;;;;0.60;0.60;;;21.30;58.40;;;;;;6220851;28;20048;-38
2022/11/11 02:29:30;;;;;;;0.52;0.40;;;21.40;58.40;;;;;;6236426;28;20892;-38
2022/11/11 02:32:51;;;;;;;0.50;0.50;;;21.50;58.30;;;;;;6232274;28;20056;-38
2022/11/11 02:36:14;;;;;;;0.38;0.38;;;21.30;58.30;;;;;;6232895;28;20037;-39
2022/11/11 02:39:30;;;;;;;0.50;0.50;;;21.10;57.90;;;;;;6233873;28;20049;-38
2022/11/11 02:43:09;;;;;;;0.52;0.30;;;21.60;58.10;;;;;;6212580;28;20930;-38
2022/11/11 02:46:29;;;;;;;0.50;0.50;;;21.50;58.10;;;;;;6233781;28;20048;-38
2022/11/11 02:49:49;;;;;;;0.50;0.40;;;21.20;58.10;;;;;;6239084;28;21004;-38
2022/11/11 02:53:09;;;;;;;0.50;0.50;;;20.90;57.70;;;;;;6238108;28;20049;-40
2022/11/11 03:00:00;;;;;;;0.40;0.40;;;21.40;58.00;;;;;;6236641;28;20577;-38
2022/11/11 03:03:19;;;;;;;0.43;0.40;;;21.20;57.90;;;;;;6217055;28;20080;-38
2022/11/11 03:06:39;;;;;;;0.73;0.45;;;21.10;57.80;;;;;;6227923;28;20911;-38
2022/11/11 03:09:59;;;;;;;0.55;0.40;;;21.10;57.80;;;;;;6233322;28;20048;-38
2022/11/11 03:13:19;;;;;;;0.43;0.40;;;21.20;57.90;;;;;;6233783;28;20540;-39
2022/11/11 03:23:39;;;;;;;0.55;0.43;;;21.00;57.60;;;;;;6219524;28;20132;-38
2022/11/11 03:26:59;;;;;;;0.52;0.32;;;21.10;57.80;;;;;;6232690;28;20544;-38
2022/11/11 03:30:19;;;;;;;0.30;0.30;;;21.10;57.80;;;;;;6233283;28;20055;-38
2022/11/11 03:33:39;;;;;;;0.32;0.32;;;21.20;57.80;;;;;;6234680;28;20055;-38
2022/11/11 03:40:29;;;;;;;0.40;0.30;;;21.30;57.80;;;;;;6229838;28;20084;-38
2022/11/11 03:43:49;;;;;;;0.80;0.50;;;21.00;57.60;;;;;;6236879;28;20052;-38
2022/11/11 03:47:09;;;;;;;0.50;0.50;;;21.40;58.10;;;;;;6235363;28;20060;-38
2022/11/11 03:50:29;;;;;;;0.30;0.30;;;21.30;58.20;;;;;;6237439;28;20041;-38
2022/11/11 03:53:49;;;;;;;0.30;0.30;;;21.30;58.10;;;;;;6236945;28;20506;-39
2022/11/11 04:00:39;;;;;;;0.20;0.20;;;21.20;57.80;;;;;;6223538;28;20045;-38
2022/11/11 04:11:02;;;;;;;0.30;0.30;;;21.20;58.30;;;;;;6236129;28;20446;-38
2022/11/11 04:17:49;;;;;;;0.35;0.30;;;21.20;58.40;;;;;;6238001;28;20587;-39
2022/11/11 04:32:34;;;;;;;0.30;0.30;;;20.80;62.40;;;;;;6239832;28;20990;-39
2022/11/11 04:35:19;;;;;;;0.25;0.20;;;21.00;62.50;;;;;;6225363;28;21508;-39
2022/11/11 04:42:09;;;;;;;0.35;0.22;;;21.30;62.70;;;;;;6241890;28;20044;-39
2022/11/11 04:45:30;;;;;;;0.30;0.30;;;21.20;62.90;;;;;;6234677;28;20580;-39
2022/11/11 04:48:49;;;;;;;0.32;0.28;;;20.90;62.70;;;;;;6230509;28;20051;-39
2022/11/11 04:59:17;;;;;;;0.50;0.30;;;21.10;62.90;;;;;;6221851;28;20892;-39
2022/11/11 05:09:29;;;;;;;0.30;0.25;;;21.00;63.10;;;;;;6238405;28;20055;-39
2022/11/11 05:12:49;;;;;;;1.00;0.40;;;21.10;63.30;;;;;;6239021;28;20091;-40
2022/11/11 05:23:19;;;;;;;0.43;0.30;;;21.10;63.40;;;;;;6235895;28;20049;-38
2022/11/11 05:26:39;;;;;;;0.40;0.30;;;21.10;63.60;;;;;;6232643;28;20143;-39
2022/11/11 05:29:59;;;;;;;0.28;0.20;;;20.80;63.50;;;;;;6232616;28;20154;-39
2022/11/11 05:33:20;;;;;;;0.55;0.43;;;21.20;63.80;;;;;;6235220;28;20048;-38
2022/11/11 05:36:39;;;;;;;0.55;0.32;;;21.00;63.10;;;;;;6229850;28;20756;-38
2022/11/11 05:39:59;;;;;;;0.45;0.30;;;21.10;63.70;;;;;;6226445;28;20441;-39
2022/11/11 05:43:19;;;;;;;0.45;0.43;;;21.20;63.70;;;;;;6230442;28;20087;-39
2022/11/11 05:46:39;;;;;;;0.50;0.30;;;21.00;63.60;;;;;;6228244;28;20053;-39
2022/11/11 05:49:59;;;;;;;0.40;0.38;;;20.70;63.50;;;;;;6229986;28;20328;-39
2022/11/11 05:53:22;;;;;;;0.63;0.30;;;21.00;63.70;;;;;;6230626;28;20577;-39
2022/11/11 05:56:39;;;;;;;0.75;0.40;;;21.10;63.60;;;;;;6231205;28;20049;-39
2022/11/11 05:59:59;;;;;;;0.95;0.50;;;21.10;63.60;;;;;;6215223;28;20044;-39
2022/11/11 06:03:19;;;;;;;0.88;0.30;;;21.10;63.70;;;;;;6229339;28;20099;-38
2022/11/11 06:06:40;;;;;;;0.40;0.40;;;21.10;63.80;;;;;;6230308;28;20049;-39
2022/11/11 06:13:29;;;;;;;1.05;0.60;;;21.10;63.70;;;;;;6216358;28;20453;-39
2022/11/11 06:16:49;;;;;;;0.40;0.30;;;21.00;63.70;;;;;;6228360;28;20040;-39
2022/11/11 06:20:09;;;;;;;0.63;0.40;;;21.30;63.70;;;;;;6225944;28;20492;-39
2022/11/11 06:23:30;;;;;;;0.73;0.55;;;21.10;63.70;;;;;;6228623;28;20371;-39
2022/11/11 06:26:50;;;;;;;0.40;0.35;;;21.10;63.80;;;;;;6228495;28;20076;-40
2022/11/11 06:30:10;;;;;;;0.43;0.40;;;21.20;63.00;;;;;;6228854;28;20122;-39
2022/11/11 06:33:49;;;;;;;0.55;0.55;;;21.10;63.60;;;;;;6218572;28;20928;-39
2022/11/11 06:37:09;;;;;;;0.85;0.40;;;21.20;62.50;;;;;;6227463;28;20197;-39
2022/11/11 06:40:30;;;;;;;0.20;0.20;;;21.00;63.50;;;;;;6232985;28;20171;-39
2022/11/11 06:43:49;;;;;;;0.47;0.38;;;21.00;63.50;;;;;;6230572;28;20040;-39
2022/11/11 06:47:09;;;;;;;0.32;0.25;;;21.10;63.60;;;;;;6235143;28;20049;-40
2022/11/11 06:50:29;;;;;;;0.20;0.20;;;21.10;63.70;;;;;;6228342;28;20590;-39
2022/11/11 06:53:49;;;;;;;0.28;0.20;;;21.00;63.50;;;;;;6235298;28;20399;-39
2022/11/11 06:57:09;;;;;;;0.30;0.20;;;21.00;63.00;;;;;;6229394;28;20048;-40
2022/11/11 07:00:29;;;;;;;0.40;0.30;;;21.10;63.50;;;;;;6228948;28;20060;-39
2022/11/11 07:03:49;;;;;;;0.65;0.30;;;21.10;63.60;;;;;;6229172;28;20115;-40
2022/11/11 07:07:09;;;;;;;0.45;0.30;;;21.20;63.70;;;;;;6222962;28;20571;-39
2022/11/11 07:10:30;;;;;;;0.47;0.30;;;21.00;63.50;;;;;;6220007;28;20076;-39
2022/11/11 07:13:49;;;;;;;0.47;0.30;;;21.10;63.60;;;;;;6211519;28;20243;-39
2022/11/11 07:17:09;;;;;;;0.25;0.22;;;20.90;63.20;;;;;;6227862;28;20051;-39
2022/11/11 07:20:29;;;;;;;0.20;0.20;;;21.20;63.50;;;;;;6222937;28;20224;-39
2022/11/11 07:23:49;;;;;;;0.28;0.25;;;21.00;63.50;;;;;;6224077;28;20092;-39
2022/11/11 07:27:09;;;;;;;0.30;0.20;;;21.10;63.50;;;;;;6220994;28;20166;-39
2022/11/11 07:30:29;;;;;;;0.40;0.30;;;20.90;62.90;;;;;;6224752;28;20079;-39
2022/11/11 07:33:49;;;;;;;0.20;0.20;;;21.00;63.50;;;;;;6231358;28;20053;-39
2022/11/11 07:37:09;;;;;;;0.35;0.25;;;21.20;63.50;;;;;;6232808;28;20060;-38
2022/11/11 07:40:29;;;;;;;0.40;0.40;;;21.00;63.50;;;;;;6198149;28;20557;-39
2022/11/11 07:43:49;;;;;;;0.40;0.35;;;20.80;63.30;;;;;;6220315;28;20135;-39
2022/11/11 07:47:10;;;;;;;0.40;0.30;;;21.00;63.90;;;;;;6223081;28;20502;-39
2022/11/11 07:50:29;;;;;;;0.50;0.43;;;21.10;63.30;;;;;;6201449;28;20525;-39
2022/11/11 07:53:49;;;;;;;0.40;0.30;;;21.10;63.30;;;;;;6223508;28;20133;-40
2022/11/11 07:57:09;;;;;;;0.47;0.35;;;20.60;63.00;;;;;;6225012;28;20459;-39
2022/11/11 08:00:29;;;;;;;0.30;0.20;;;21.10;63.30;;;;;;6216618;28;20060;-38
2022/11/11 08:03:49;;;;;;;0.30;0.30;;;21.10;63.40;;;;;;6223397;28;20874;-39
2022/11/11 08:07:09;;;;;;;0.63;0.50;;;20.80;63.10;;;;;;6225148;28;20044;-39
2022/11/11 08:10:29;;;;;;;0.30;0.30;;;20.70;63.00;;;;;;6224746;28;20041;-39
2022/11/11 08:13:50;;;;;;;0.55;0.50;;;20.60;63.00;;;;;;6225592;28;20440;-39
2022/11/11 08:17:09;;;;;;;0.40;0.40;;;21.10;63.20;;;;;;6223127;28;20147;-38
2022/11/11 08:20:29;;;;;;;0.40;0.30;;;21.00;63.10;;;;;;6224549;28;20852;-39
2022/11/11 08:23:50;;;;;;;0.52;0.40;;;20.80;63.10;;;;;;6229796;28;20052;-39
2022/11/11 08:27:29;;;;;;;0.40;0.30;;;21.00;63.10;;;;;;6218830;28;20048;-38
2022/11/11 08:30:49;;;;;;;0.40;0.40;;;20.90;62.20;;;;;;6227079;28;20049;-39
2022/11/11 08:34:09;;;;;;;0.40;0.40;;;21.10;63.20;;;;;;6227648;28;20574;-39
2022/11/11 08:37:29;;;;;;;0.20;0.20;;;21.10;63.20;;;;;;6228324;28;20056;-38
2022/11/11 08:40:50;;;;;;;0.52;0.40;;;21.40;62.90;;;;;;6227361;28;20048;-38
2022/11/11 08:44:09;;;;;;;0.30;0.30;;;21.10;63.00;;;;;;6214313;28;20057;-40
2022/11/11 08:47:29;;;;;;;0.32;0.30;;;20.90;62.90;;;;;;6228006;28;20056;-39
2022/11/11 08:50:51;;;;;;;0.45;0.40;;;21.20;62.80;;;;;;6224409;28;20500;-38
2022/11/11 08:54:10;;;;;;;0.40;0.30;;;21.00;62.80;;;;;;6224959;28;20045;-39
2022/11/11 08:57:29;;;;;;;0.30;0.30;;;21.10;62.60;;;;;;6227488;28;20987;-39
2022/11/11 09:00:49;;;;;;;0.40;0.35;;;20.80;62.30;;;;;;6222269;28;20059;-39
2022/11/11 09:04:09;;;;;;;0.50;0.45;;;20.70;62.10;;;;;;6221209;28;20361;-39
2022/11/11 09:07:49;;;;;;;0.30;0.30;;;21.10;62.80;;;;;;6199899;28;20501;-39
2022/11/11 09:11:10;;;;;;;0.38;0.30;;;20.80;62.40;;;;;;6202227;28;20848;-38
2022/11/11 09:14:29;;;;;;;0.40;0.40;;;21.00;62.40;;;;;;6216021;28;20233;-39
2022/11/11 09:17:49;;;;;;;0.30;0.30;;;21.20;62.30;;;;;;6219427;28;20618;-39
2022/11/11 09:21:09;;;;;;;0.30;0.30;;;20.70;62.20;;;;;;6216643;28;20052;-39
2022/11/11 09:24:29;;;;;;;0.30;0.30;;;20.90;62.00;;;;;;6218895;28;20607;-38
2022/11/11 09:27:58;;;;;;;0.22;0.20;;;20.90;62.20;;;;;;6224213;28;20451;-40
2022/11/11 09:31:19;;;;;;;0.38;0.38;;;21.00;62.00;;;;;;6208797;28;20053;-39
2022/11/11 09:34:59;;;;;;;0.30;0.30;;;21.00;62.50;;;;;;6213068;28;20056;-39
2022/11/11 09:38:19;;;;;;;0.30;0.30;;;21.00;61.90;;;;;;6225855;28;20055;-39
2022/11/11 09:41:51;;;;;;;0.30;0.25;;;21.10;62.00;;;;;;6225753;28;21053;-39
2022/11/11 09:45:27;;;;;;;0.35;0.25;;;20.90;61.50;;;;;;6231331;28;20151;-38
2022/11/11 09:48:57;;;;;;;0.40;0.38;;;21.00;61.60;;;;;;6215675;28;20036;-40
2022/11/11 09:52:14;;;;;;;0.28;0.28;;;21.10;61.50;;;;;;6219551;28;20075;-39
2022/11/11 09:55:35;;;;;;;0.45;0.30;;;21.20;61.60;;;;;;6219724;28;20406;-39
2022/11/11 09:58:52;;;;;;;0.55;0.40;;;21.10;61.50;;;;;;6193705;28;20192;-39
2022/11/11 10:02:18;;;;;;;0.30;0.30;;;21.10;61.60;;;;;;6146942;28;20053;-38
2022/11/11 10:05:43;;;;;;;0.38;0.30;;;21.10;61.40;;;;;;6224265;28;20121;-38
2022/11/11 10:09:01;;;;;;;0.20;0.20;;;21.10;61.20;;;;;;6214039;28;20567;-38
2022/11/11 10:12:23;;;;;;;0.25;0.20;;;20.90;61.20;;;;;;6204691;28;20092;-39
2022/11/11 10:15:51;;;;;;;0.45;0.32;;;21.20;61.30;;;;;;6218411;28;20048;-39
2022/11/11 10:19:27;;;;;;;0.60;0.40;;;21.30;61.30;;;;;;6224607;28;20583;-39
2022/11/11 10:22:41;;;;;;;0.40;0.30;;;21.10;61.20;;;;;;6218686;28;20576;-39
2022/11/11 10:26:06;;;;;;;0.40;0.40;;;21.00;61.20;;;;;;6207535;28;20522;-39
2022/11/11 10:29:21;;;;;;;0.43;0.30;;;21.00;61.10;;;;;;6220766;28;20204;-39
2022/11/11 10:32:40;;;;;;;0.30;0.30;;;21.00;61.10;;;;;;6204396;28;20273;-39
2022/11/11 10:36:04;;;;;;;0.50;0.40;;;21.20;61.20;;;;;;6220394;28;20193;-38
2022/11/11 10:39:25;;;;;;;0.47;0.40;;;20.80;60.80;;;;;;6213821;28;20519;-40
2022/11/11 10:42:39;;;;;;;0.43;0.35;;;21.20;61.10;;;;;;6205524;28;20049;-39
2022/11/11 10:46:06;;;;;;;0.43;0.38;;;21.10;61.00;;;;;;6226294;28;20041;-38
2022/11/11 10:49:23;;;;;;;0.50;0.40;;;21.00;60.80;;;;;;6230146;28;20047;-39
2022/11/11 10:52:43;;;;;;;0.45;0.30;;;20.80;60.70;;;;;;6213548;28;20053;-39
2022/11/11 10:56:06;;;;;;;0.40;0.40;;;21.10;61.00;;;;;;6206775;28;20347;-39
2022/11/11 10:59:23;;;;;;;0.43;0.43;;;21.10;61.00;;;;;;6221776;28;20330;-39
2022/11/11 11:02:45;;;;;;;0.30;0.30;;;20.80;60.80;;;;;;6217798;28;20563;-40
2022/11/11 11:06:05;;;;;;;0.30;0.30;;;21.00;61.00;;;;;;6223311;28;20126;-40
2022/11/11 11:09:26;;;;;;;0.45;0.40;;;21.10;61.00;;;;;;6207625;28;20052;-39
2022/11/11 11:12:45;;;;;;;0.40;0.40;;;21.10;60.90;;;;;;6201125;28;20448;-40
2022/11/11 11:16:05;;;;;;;0.50;0.32;;;20.90;60.80;;;;;;6222630;28;20289;-39
2022/11/11 11:19:20;;;;;;;0.38;0.30;;;21.10;60.80;;;;;;6205058;28;21027;-39
2022/11/11 11:22:47;;;;;;;0.43;0.43;;;21.40;61.10;;;;;;6221774;28;20690;-38
2022/11/11 11:26:01;;;;;;;0.60;0.50;;;20.80;60.70;;;;;;6206220;28;20397;-39
2022/11/11 11:29:31;;;;;;;0.60;0.50;;;21.10;61.10;;;;;;6223425;28;20843;-39
2022/11/11 11:32:57;;;;;;;0.52;0.30;;;21.10;60.90;;;;;;6224956;28;20377;-38
2022/11/11 11:36:16;;;;;;;0.50;0.50;;;21.20;61.00;;;;;;6227544;28;20512;-38
2022/11/11 11:39:33;;;;;;;0.82;0.55;;;21.10;61.00;;;;;;6207117;28;20712;-38
2022/11/11 11:42:50;;;;;;;0.63;0.55;;;21.10;60.90;;;;;;6212794;28;20348;-39
2022/11/11 11:46:26;;;;;;;0.60;0.43;;;21.30;61.10;;;;;;6221333;28;20712;-38
2022/11/11 11:50:07;;;;;;;0.60;0.40;;;21.00;60.90;;;;;;6208726;28;20522;-39
2022/11/11 11:53:33;;;;;;;0.40;0.40;;;21.20;61.00;;;;;;6223282;28;20325;-39
2022/11/11 11:56:53;;;;;;;0.40;0.40;;;21.00;60.90;;;;;;6208015;28;20626;-38
2022/11/11 12:00:17;;;;;;;0.40;0.40;;;21.00;61.00;;;;;;6198113;28;20518;-39
2022/11/11 12:03:45;;;;;;;0.50;0.40;;;21.20;61.00;;;;;;6203190;28;20040;-39
2022/11/11 12:07:08;;;;;;;0.50;0.43;;;21.10;61.00;;;;;;6217209;28;20538;-38
2022/11/11 12:10:38;;;;;;;0.75;0.50;;;20.90;60.90;;;;;;6222219;28;20889;-39
2022/11/11 12:14:19;;;;;;;0.50;0.50;;;21.30;61.20;;;;;;6225484;28;20308;-38
2022/11/11 12:17:49;;;;;;;0.70;0.50;;;21.50;61.30;;;;;;6226894;28;20660;-39
2022/11/11 12:21:13;;;;;;;0.68;0.47;;;21.30;61.00;;;;;;6210803;28;20671;-39
2022/11/11 12:24:41;;;;;;;0.60;0.50;;;21.20;61.80;;;;;;6202897;28;20040;-39
2022/11/11 12:28:04;;;;;;;0.50;0.40;;;21.10;61.00;;;;;;6230304;28;20052;-38
2022/11/11 12:31:30;;;;;;;0.52;0.52;;;21.00;61.00;;;;;;6213486;28;21036;-39
2022/11/11 12:35:14;;;;;;;0.47;0.47;;;21.20;61.20;;;;;;6212752;28;20048;-38
2022/11/11 12:38:46;;;;;;;0.70;0.70;;;21.40;61.30;;;;;;6206854;28;20707;-39
2022/11/11 12:42:11;;;;;;;0.50;0.50;;;20.90;61.10;;;;;;6225226;28;20925;-38
2022/11/11 12:45:37;;;;;;;0.70;0.55;;;21.40;61.30;;;;;;6221909;28;20059;-38
2022/11/11 12:49:01;;;;;;;0.55;0.55;;;21.20;61.10;;;;;;6199246;28;20524;-39
2022/11/11 12:52:34;;;;;;;0.50;0.47;;;21.20;61.10;;;;;;6217896;28;20270;-39
2022/11/11 12:56:00;;;;;;;0.50;0.50;;;21.20;61.20;;;;;;6216482;28;20822;-39
2022/11/11 12:59:27;;;;;;;0.85;0.55;;;21.40;61.30;;;;;;6199440;28;20573;-39
2022/11/11 13:03:05;;;;;;;0.73;0.60;;;21.20;61.20;;;;;;6214884;28;20064;-39
2022/11/11 13:06:38;;;;;;;0.70;0.60;;;21.10;61.20;;;;;;6206211;28;20501;-38
2022/11/11 13:10:17;;;;;;;0.70;0.52;;;21.30;61.10;;;;;;6217765;28;20455;-38
2022/11/11 13:13:42;;;;;;;0.60;0.55;;;21.30;61.20;;;;;;6218216;28;20193;-39
2022/11/11 13:17:00;;;;;;;0.70;0.70;;;21.00;61.20;;;;;;6219310;28;20435;-39
2022/11/11 13:20:42;;;;;;;0.70;0.60;;;21.20;61.30;;;;;;6203208;28;20082;-39
2022/11/11 13:23:59;;;;;;;0.73;0.70;;;21.00;61.20;;;;;;6195601;28;20469;-38
2022/11/11 13:27:30;;;;;;;0.70;0.60;;;21.50;61.70;;;;;;6215301;28;20084;-40
2022/11/11 13:31:02;;;;;;;0.90;0.70;;;21.10;61.40;;;;;;6212690;28;20728;-40
2022/11/11 13:34:21;;;;;;;0.60;0.50;;;21.70;61.60;;;;;;6216750;28;20574;-39
2022/11/11 13:37:42;;;;;;;0.75;0.60;;;21.50;61.60;;;;;;6214283;28;20312;-39
2022/11/11 13:41:02;;;;;;;0.68;0.60;;;21.00;61.30;;;;;;6215862;28;20352;-38
2022/11/11 13:44:24;;;;;;;0.57;0.50;;;21.30;61.40;;;;;;6214329;28;20327;-38
2022/11/11 13:47:44;;;;;;;0.80;0.57;;;21.30;61.40;;;;;;6210618;28;20697;-39
2022/11/11 13:51:30;;;;;;;0.80;0.63;;;21.40;61.50;;;;;;6212223;28;20216;-38
2022/11/11 13:54:55;;;;;;;0.80;0.70;;;20.90;61.10;;;;;;6214600;28;20145;-39
2022/11/11 13:58:23;;;;;;;0.60;0.60;;;21.30;61.30;;;;;;6216172;28;20052;-38
2022/11/11 14:01:40;;;;;;;0.52;0.50;;;21.30;61.30;;;;;;6199452;28;20293;-38
2022/11/11 14:05:16;;;;;;;0.63;0.50;;;21.20;60.90;;;;;;6219783;28;20076;-38
2022/11/11 14:08:50;;;;;;;0.63;0.60;;;21.10;60.90;;;;;;6222452;28;20610;-38
2022/11/11 14:12:34;;;;;;;0.60;0.60;;;21.20;60.80;;;;;;6219762;28;20049;-39
2022/11/11 14:15:51;;;;;;;0.60;0.60;;;21.20;61.10;;;;;;6217650;28;20186;-38
2022/11/11 14:19:28;;;;;;;0.75;0.60;;;21.30;61.30;;;;;;6199415;28;20411;-39
2022/11/11 14:22:49;;;;;;;0.65;0.60;;;21.20;61.10;;;;;;6217122;28;20059;-39
2022/11/11 14:26:26;;;;;;;0.73;0.63;;;21.50;61.30;;;;;;6218581;28;20393;-38
2022/11/11 14:29:48;;;;;;;0.40;0.40;;;21.40;61.70;;;;;;6203163;28;20044;-38
2022/11/11 14:33:20;;;;;;;0.63;0.60;;;21.00;60.80;;;;;;6217292;28;20528;-39
2022/11/11 14:36:44;;;;;;;0.50;0.50;;;21.30;60.90;;;;;;6220243;28;20443;-39
2022/11/11 14:39:59;;;;;;;0.73;0.60;;;21.30;60.80;;;;;;6214220;28;21046;-39
2022/11/11 14:43:35;;;;;;;0.40;0.35;;;21.30;61.10;;;;;;6213617;28;20474;-39
2022/11/11 14:47:18;;;;;;;0.70;0.63;;;21.20;60.80;;;;;;6204978;28;20326;-38
2022/11/11 14:50:42;;;;;;;0.57;0.50;;;21.20;60.70;;;;;;6199682;28;20498;-39
2022/11/11 14:54:01;;;;;;;0.68;0.52;;;21.40;60.90;;;;;;6218855;28;20328;-39
2022/11/11 14:57:24;;;;;;;0.77;0.60;;;21.30;60.80;;;;;;6219700;28;20056;-39
2022/11/11 15:00:46;;;;;;;0.50;0.50;;;21.50;61.00;;;;;;6193349;28;20155;-38
2022/11/11 15:04:02;;;;;;;0.50;0.50;;;21.20;60.70;;;;;;6215511;28;20342;-39
2022/11/11 15:07:29;;;;;;;0.80;0.60;;;21.30;60.90;;;;;;6214080;28;20110;-38
2022/11/11 15:11:07;;;;;;;0.50;0.50;;;21.40;61.00;;;;;;6213682;28;20796;-39
2022/11/11 15:14:27;;;;;;;0.68;0.68;;;21.30;60.90;;;;;;6219902;28;20278;-38
2022/11/11 15:17:48;;;;;;;0.70;0.60;;;21.50;60.70;;;;;;6213494;28;21303;-38
2022/11/11 15:21:15;;;;;;;0.43;0.40;;;21.20;60.80;;;;;;6211719;28;20045;-38
2022/11/11 15:24:38;;;;;;;0.80;0.70;;;21.20;60.90;;;;;;6214815;28;20171;-38
2022/11/11 15:28:06;;;;;;;0.63;0.50;;;21.00;60.90;;;;;;6215734;28;20036;-40
2022/11/11 15:31:27;;;;;;;0.52;0.52;;;21.30;61.00;;;;;;6216794;28;20048;-39
2022/11/11 15:34:44;;;;;;;0.90;0.60;;;21.40;61.10;;;;;;6214634;28;20135;-38
2022/11/11 15:38:01;;;;;;;0.63;0.50;;;21.50;61.10;;;;;;6214491;28;20047;-39
2022/11/11 15:41:23;;;;;;;0.50;0.50;;;21.20;61.00;;;;;;6216861;28;20693;-39
2022/11/11 15:44:40;;;;;;;1.25;0.63;;;21.30;61.00;;;;;;6190040;28;20569;-38
2022/11/11 15:47:59;;;;;;;0.80;0.60;;;21.30;61.00;;;;;;6216443;28;20614;-38
2022/11/11 15:51:28;;;;;;;0.70;0.68;;;21.00;60.70;;;;;;6215812;28;20088;-38
2022/11/11 15:54:39;;;;;;;0.80;0.47;;;21.10;61.00;;;;;;6215210;28;20075;-38
2022/11/11 15:58:15;;;;;;;0.80;0.70;;;21.30;61.30;;;;;;6212137;28;20053;-38
2022/11/11 16:01:31;;;;;;;0.70;0.60;;;21.10;61.10;;;;;;6189720;28;20052;-39
2022/11/11 16:04:54;;;;;;;0.60;0.60;;;21.30;61.30;;;;;;6214545;28;20051;-40
2022/11/11 16:08:16;;;;;;;0.85;0.75;;;21.20;61.10;;;;;;6213747;28;20499;-39
2022/11/11 16:11:29;;;;;;;0.70;0.60;;;21.30;60.70;;;;;;6214886;28;20059;-39
2022/11/11 16:14:52;;;;;;;0.50;0.50;;;21.30;61.10;;;;;;6216040;28;20048;-38
2022/11/11 16:18:17;;;;;;;0.45;0.45;;;21.10;61.10;;;;;;6216449;28;20045;-38
2022/11/11 16:21:34;;;;;;;0.40;0.40;;;21.20;61.20;;;;;;6213961;28;20382;-39
2022/11/11 16:24:50;;;;;;;0.70;0.60;;;21.10;61.20;;;;;;6212435;28;20475;-38
2022/11/11 16:28:11;;;;;;;0.55;0.50;;;21.30;61.10;;;;;;6212321;28;20052;-39
2022/11/11 16:31:37;;;;;;;0.82;0.75;;;21.20;61.30;;;;;;6217587;28;20348;-39
2022/11/11 16:35:00;;;;;;;0.65;0.60;;;21.10;61.30;;;;;;6197633;28;20626;-38
2022/11/11 16:38:37;;;;;;;0.70;0.70;;;21.20;61.40;;;;;;6190002;28;20593;-39
2022/11/11 16:41:53;;;;;;;0.80;0.60;;;21.20;59.60;;;;;;6203928;28;20534;-39
2022/11/11 16:45:22;;;;;;;0.70;0.70;;;21.30;61.50;;;;;;6211169;28;20063;-39
2022/11/11 16:48:47;;;;;;;0.85;0.70;;;20.90;61.30;;;;;;6214553;28;20105;-39
2022/11/11 16:52:09;;;;;;;0.98;0.70;;;21.20;61.50;;;;;;6217120;28;20825;-38
2022/11/11 16:55:34;;;;;;;0.80;0.77;;;21.00;61.50;;;;;;6215257;28;20210;-40
2022/11/11 16:58:56;;;;;;;0.60;0.60;;;20.80;61.40;;;;;;6212571;28;20049;-39
2022/11/11 17:02:16;;;;;;;1.05;0.80;;;20.80;61.30;;;;;;6214135;28;21115;-39
2022/11/11 17:05:47;;;;;;;0.85;0.85;;;21.20;61.60;;;;;;6196634;28;20398;-39
2022/11/11 17:09:00;;;;;;;0.80;0.80;;;21.10;62.40;;;;;;6191361;28;20052;-38
2022/11/11 17:12:29;;;;;;;0.70;0.68;;;21.00;61.80;;;;;;6215441;28;20103;-38
2022/11/11 17:15:51;;;;;;;0.65;0.63;;;21.10;61.60;;;;;;6195083;28;20044;-38
2022/11/11 17:19:09;;;;;;;0.70;0.60;;;21.10;62.00;;;;;;6213481;28;20167;-39
2022/11/11 17:22:29;;;;;;;0.63;0.52;;;21.30;61.60;;;;;;6212731;28;21249;-39
2022/11/11 17:25:55;;;;;;;1.10;0.85;;;21.10;62.10;;;;;;6212624;28;20056;-39
2022/11/11 17:29:13;;;;;;;0.77;0.77;;;21.20;61.70;;;;;;6216999;28;20047;-39
2022/11/11 17:32:29;;;;;;;0.70;0.70;;;20.80;61.70;;;;;;6220664;28;20044;-38
2022/11/11 17:35:50;;;;;;;0.85;0.70;;;21.20;62.10;;;;;;6220196;28;20057;-39
2022/11/11 17:39:09;;;;;;;0.88;0.73;;;21.20;62.10;;;;;;6222240;28;20921;-38
2022/11/11 17:42:31;;;;;;;0.70;0.70;;;20.90;61.80;;;;;;6224534;28;20139;-39
2022/11/11 17:45:50;;;;;;;0.95;0.85;;;21.10;62.10;;;;;;6211577;28;20054;-41
2022/11/11 17:49:10;;;;;;;0.93;0.82;;;20.90;62.00;;;;;;6231630;28;20070;-38
2022/11/11 17:52:29;;;;;;;0.88;0.80;;;21.10;62.30;;;;;;6209482;28;20143;-39
2022/11/11 17:55:49;;;;;;;0.70;0.68;;;21.30;62.30;;;;;;6230345;28;20087;-39
2022/11/11 17:59:10;;;;;;;0.93;0.80;;;21.20;62.30;;;;;;6226701;28;20048;-39
2022/11/11 18:02:29;;;;;;;0.77;0.63;;;21.30;62.40;;;;;;6223648;28;22164;-39
2022/11/11 18:05:53;;;;;;;1.00;0.80;;;21.10;62.50;;;;;;6223667;28;20155;-38
2022/11/11 18:09:09;;;;;;;0.80;0.80;;;21.10;62.30;;;;;;6222513;28;20051;-39
2022/11/11 18:12:29;;;;;;;1.08;0.90;;;21.10;62.60;;;;;;6224257;28;20063;-39
2022/11/11 18:15:50;;;;;;;0.80;0.80;;;21.10;62.30;;;;;;6225057;28;20045;-39
2022/11/11 18:19:09;;;;;;;0.80;0.80;;;20.90;62.50;;;;;;6225639;28;20051;-39
2022/11/11 18:22:29;;;;;;;1.02;0.85;;;21.20;62.70;;;;;;6221194;28;20152;-38
2022/11/11 18:25:53;;;;;;;1.00;0.90;;;21.10;62.70;;;;;;6221932;28;20056;-38
2022/11/11 18:29:10;;;;;;;1.08;0.98;;;20.80;62.30;;;;;;6226652;28;20056;-39
2022/11/11 18:32:30;;;;;;;1.25;1.15;;;20.80;62.40;;;;;;6208724;28;20045;-39
2022/11/11 18:35:49;;;;;;;1.27;1.10;;;21.00;62.60;;;;;;6226721;28;20843;-38
2022/11/11 18:39:10;;;;;;;0.90;0.80;;;21.00;62.40;;;;;;6227307;28;20040;-38
2022/11/11 18:42:30;;;;;;;1.10;1.00;;;21.10;62.20;;;;;;6223512;28;20893;-38
2022/11/11 18:45:50;;;;;;;1.10;1.00;;;21.00;62.60;;;;;;6227910;28;20121;-38
2022/11/11 18:49:12;;;;;;;1.38;1.27;;;21.10;62.70;;;;;;6227629;28;20044;-39
2022/11/11 18:52:30;;;;;;;1.38;1.17;;;21.20;62.60;;;;;;6224481;28;20129;-38
2022/11/11 18:55:50;;;;;;;1.30;1.20;;;21.20;62.60;;;;;;6227718;28;20053;-39
2022/11/11 18:59:11;;;;;;;1.73;1.50;;;20.90;62.50;;;;;;6227536;28;20577;-39
2022/11/11 19:02:30;;;;;;;1.20;1.10;;;21.10;62.20;;;;;;6224229;28;20049;-39